Orbital elements of BREEZE-M DEB
| Launched | 13 March 2008 |
| Flight ended | – |
| Launch site | Tyuratam Missile and Space Center, Kazakhstan (Also known as Baikonur Cosmodrome) |
| Owner | Commonwealth of Independent States (former USSR) |
| NORAD ID | 37198 |
| Date fetched |
Epoch osculation |
Inc. [°] |
Ecc. | RA asc node [hr] |
Arg Peri. [°] |
Mean anom [°] |
Mean motion [rev/day] |
Abs. mag |
| Date fetched |
Epoch osculation |
Inc. [°] |
Ecc. | RA asc node [hr] |
Arg Peri. [°] |
Mean anom [°] |
Mean motion [rev/day] |
Abs. mag |
| 2026 May 08 17:57 | 2026 May 02 02:26:04 | 49.1071 | 0.65325 | 12.7922 | 14.6489 | 357.7601 | 3.12729 | 4.500 |
| 2026 May 07 17:58 | 2026 May 02 02:26:04 | 49.1071 | 0.65325 | 12.7922 | 14.6489 | 357.7601 | 3.12729 | 4.500 |
| 2026 May 06 17:57 | 2026 May 02 02:26:04 | 49.1071 | 0.65325 | 12.7922 | 14.6489 | 357.7601 | 3.12729 | 4.500 |
| 2026 May 05 17:57 | 2026 May 02 02:26:04 | 49.1071 | 0.65325 | 12.7922 | 14.6489 | 357.7601 | 3.12729 | 4.500 |
| 2026 May 04 17:57 | 2026 Apr 30 12:03:50 | 49.1067 | 0.65321 | 12.8328 | 14.1171 | 357.7601 | 3.12729 | 4.500 |
| 2026 May 03 17:57 | 2026 Apr 30 12:03:50 | 49.1067 | 0.65321 | 12.8328 | 14.1171 | 357.7601 | 3.12729 | 4.500 |
| 2026 May 02 17:57 | 2026 Apr 30 12:03:50 | 49.1067 | 0.65321 | 12.8328 | 14.1171 | 357.7601 | 3.12729 | 4.500 |
| 2026 May 01 17:56 | 2026 Apr 30 12:03:50 | 49.1067 | 0.65321 | 12.8328 | 14.1171 | 357.7601 | 3.12729 | 4.500 |
| 2026 Apr 30 17:56 | 2026 Apr 30 12:03:50 | 49.1067 | 0.65321 | 12.8328 | 14.1171 | 357.7601 | 3.12729 | 4.500 |
| 2026 Apr 29 17:57 | 2026 Apr 22 12:12:43 | 49.1081 | 0.65303 | 13.0358 | 11.4604 | 357.7601 | 3.12729 | 4.500 |
| 2026 Apr 28 17:56 | 2026 Apr 22 12:12:43 | 49.1081 | 0.65303 | 13.0358 | 11.4604 | 357.7601 | 3.12729 | 4.500 |
| 2026 Apr 27 17:58 | 2026 Apr 22 12:12:43 | 49.1081 | 0.65303 | 13.0358 | 11.4604 | 357.7601 | 3.12729 | 4.500 |
| 2026 Apr 26 17:58 | 2026 Apr 22 12:12:43 | 49.1081 | 0.65303 | 13.0358 | 11.4604 | 357.7601 | 3.12729 | 4.500 |
| 2026 Apr 25 17:58 | 2026 Apr 22 12:12:43 | 49.1081 | 0.65303 | 13.0358 | 11.4604 | 357.7601 | 3.12729 | 4.500 |
| 2026 Apr 24 17:59 | 2026 Apr 22 12:12:43 | 49.1081 | 0.65303 | 13.0358 | 11.4604 | 357.7601 | 3.12729 | 4.500 |
| 2026 Apr 23 17:57 | 2026 Apr 19 07:28:16 | 49.1092 | 0.65294 | 13.1169 | 10.3990 | 357.7601 | 3.12729 | 4.500 |
| 2026 Apr 22 17:57 | 2026 Apr 19 07:28:16 | 49.1092 | 0.65294 | 13.1169 | 10.3990 | 357.7601 | 3.12729 | 4.500 |
| 2026 Apr 21 17:57 | 2026 Apr 19 07:28:16 | 49.1092 | 0.65294 | 13.1169 | 10.3990 | 357.7601 | 3.12729 | 4.500 |
| 2026 Apr 20 17:57 | 2026 Apr 19 07:28:16 | 49.1092 | 0.65294 | 13.1169 | 10.3990 | 357.7601 | 3.12729 | 4.500 |
| 2026 Apr 19 17:58 | 2026 Apr 19 07:28:16 | 49.1092 | 0.65294 | 13.1169 | 10.3990 | 357.7601 | 3.12729 | 4.500 |
| 2026 Apr 18 17:56 | 2026 Apr 13 05:39:42 | 49.1123 | 0.65280 | 13.2710 | 8.3818 | 357.7601 | 3.12729 | 4.500 |
| 2026 Apr 16 17:57 | 2026 Apr 13 05:39:42 | 49.1123 | 0.65280 | 13.2710 | 8.3818 | 357.7601 | 3.12729 | 4.500 |
| 2026 Apr 14 17:57 | 2026 Apr 13 05:39:42 | 49.1123 | 0.65280 | 13.2710 | 8.3818 | 357.7601 | 3.12729 | 4.500 |
| 2026 Apr 13 17:57 | 2026 Apr 13 05:39:42 | 49.1123 | 0.65280 | 13.2710 | 8.3818 | 357.7601 | 3.12729 | 4.500 |
| 2026 Apr 12 17:57 | 2026 Apr 04 14:27:37 | 49.1183 | 0.65263 | 13.4896 | 5.5239 | 357.7601 | 3.12729 | 4.500 |
| 2026 Apr 11 17:57 | 2026 Apr 04 14:27:37 | 49.1183 | 0.65263 | 13.4896 | 5.5239 | 357.7601 | 3.12729 | 4.500 |